createdAt,value
2023-02-27T00:00:28.121Z,76.58
2023-02-27T00:02:54.743Z,76.81
2023-02-27T00:05:22.350Z,76.97
2023-02-27T00:07:49.926Z,77.25
2023-02-27T00:10:21.269Z,77.33
2023-02-27T00:12:48.149Z,77.39
2023-02-27T00:15:17.266Z,77.19
2023-02-27T00:17:46.333Z,77.24
2023-02-27T00:20:15.590Z,77.44
2023-02-27T00:22:45.548Z,77.51
2023-02-27T00:25:12.343Z,77.77
2023-02-27T00:27:41.595Z,77.23
2023-02-27T00:30:10.177Z,76.65
2023-02-27T00:32:38.798Z,76.44
2023-02-27T00:35:06.620Z,76.23
2023-02-27T00:37:33.871Z,75.57
2023-02-27T00:40:04.746Z,75.37
2023-02-27T00:42:32.520Z,75.48
2023-02-27T00:45:03.242Z,75.30
2023-02-27T00:47:31.825Z,75.27
2023-02-27T00:50:00.107Z,75.38
2023-02-27T00:52:26.792Z,75.18
2023-02-27T00:54:54.421Z,75.17
2023-02-27T00:57:20.989Z,74.65
2023-02-27T00:59:48.056Z,74.49
2023-02-27T01:02:15.780Z,74.01
2023-02-27T01:04:42.540Z,74.22
2023-02-27T01:07:09.221Z,73.81
2023-02-27T01:09:35.874Z,73.84
2023-02-27T01:12:03.466Z,73.58
2023-02-27T01:14:30.351Z,72.81
2023-02-27T01:16:57.561Z,72.70
2023-02-27T01:19:24.509Z,72.33
2023-02-27T01:21:51.240Z,71.64
2023-02-27T01:24:19.413Z,71.32
2023-02-27T01:26:48.145Z,71.32
2023-02-27T01:29:14.902Z,71.19
2023-02-27T01:31:43.481Z,70.94
2023-02-27T01:34:11.022Z,70.76
2023-02-27T01:36:37.991Z,70.76
2023-02-27T01:39:04.703Z,70.52
2023-02-27T01:41:33.942Z,70.71
2023-02-27T01:44:07.045Z,70.67
2023-02-27T01:46:38.539Z,70.70
2023-02-27T01:49:26.918Z,71.08
2023-02-27T01:52:01.276Z,70.90
2023-02-27T01:54:29.218Z,71.09
2023-02-27T01:56:55.957Z,71.17
2023-02-27T01:59:23.150Z,71.08
2023-02-27T02:01:50.478Z,71.24
2023-02-27T02:04:26.398Z,71.56
2023-02-27T02:07:05.380Z,71.71
2023-02-27T02:09:34.342Z,71.32
2023-02-27T02:12:03.653Z,70.90
2023-02-27T02:14:34.988Z,70.53
2023-02-27T02:17:01.848Z,70.34
2023-02-27T02:19:40.526Z,69.57
2023-02-27T02:22:31.868Z,69.81
2023-02-27T02:25:17.987Z,69.73
2023-02-27T02:27:51.518Z,69.83
2023-02-27T02:30:40.085Z,69.96
2023-02-27T02:33:15.883Z,70.11
2023-02-27T02:36:14.368Z,69.90
2023-02-27T02:39:00.034Z,69.88
2023-02-27T02:41:49.918Z,69.48
2023-02-27T02:44:41.352Z,68.97
2023-02-27T02:47:55.990Z,68.67
2023-02-27T02:50:34.591Z,68.07
2023-02-27T02:53:04.136Z,68.76
2023-02-27T02:55:48.107Z,68.57
2023-02-27T02:58:24.257Z,68.54
2023-02-27T03:00:59.582Z,68.56
2023-02-27T03:03:34.910Z,68.77
2023-02-27T03:06:06.245Z,68.56
2023-02-27T03:08:35.457Z,68.35
2023-02-27T03:11:03.251Z,68.46
2023-02-27T03:13:54.845Z,68.32
2023-02-27T03:16:42.149Z,68.10
2023-02-27T03:19:15.095Z,67.97
2023-02-27T03:21:51.304Z,68.10
2023-02-27T03:24:21.948Z,68.12
2023-02-27T03:26:51.468Z,67.77
2023-02-27T03:29:21.135Z,67.95
2023-02-27T03:31:50.643Z,67.81
2023-02-27T03:34:29.472Z,67.54
2023-02-27T03:37:16.543Z,67.76
2023-02-27T03:39:59.054Z,67.26
2023-02-27T03:42:45.996Z,67.36
2023-02-27T03:45:42.706Z,67.62
2023-02-27T03:48:09.254Z,67.74
2023-02-27T03:50:38.185Z,67.53
2023-02-27T03:53:06.492Z,67.53
2023-02-27T03:55:35.510Z,67.41
2023-02-27T03:58:02.120Z,67.62
2023-02-27T04:00:29.023Z,67.87
2023-02-27T04:02:57.019Z,68.54
2023-02-27T04:05:25.425Z,68.86
2023-02-27T04:08:08.584Z,68.69
2023-02-27T04:10:59.293Z,69.21
2023-02-27T04:13:43.853Z,69.15
2023-02-27T04:16:27.260Z,69.30
2023-02-27T04:18:57.046Z,69.52
2023-02-27T04:21:28.997Z,69.96
2023-02-27T04:24:02.275Z,70.36
2023-02-27T04:26:48.781Z,70.62
2023-02-27T04:29:32.722Z,70.62
2023-02-27T04:32:02.198Z,71.00
2023-02-27T04:34:39.224Z,71.03
2023-02-27T04:37:20.098Z,70.87
2023-02-27T04:39:52.819Z,70.58
2023-02-27T04:42:25.393Z,70.33
2023-02-27T04:45:00.016Z,70.03
2023-02-27T04:47:29.694Z,69.63
2023-02-27T04:50:03.815Z,69.69
2023-02-27T04:52:37.398Z,69.66
2023-02-27T04:55:09.345Z,69.68
2023-02-27T04:57:42.234Z,69.71
2023-02-27T05:00:11.279Z,69.69
2023-02-27T05:02:41.745Z,69.60
2023-02-27T05:05:10.810Z,69.71
2023-02-27T05:07:51.151Z,69.71
2023-02-27T05:10:23.816Z,69.29
2023-02-27T05:12:57.074Z,69.34
2023-02-27T05:15:29.342Z,68.91
2023-02-27T05:18:04.042Z,68.46
2023-02-27T05:20:53.803Z,68.37
2023-02-27T05:23:30.949Z,68.23
2023-02-27T05:26:18.904Z,68.14
2023-02-27T05:29:02.920Z,68.38
2023-02-27T05:31:56.047Z,68.22
2023-02-27T05:34:27.845Z,67.79
2023-02-27T05:36:59.945Z,67.94
2023-02-27T05:39:29.286Z,67.59
2023-02-27T05:41:58.555Z,67.07
2023-02-27T05:44:27.468Z,66.78
2023-02-27T05:47:05.887Z,66.38
2023-02-27T05:49:55.694Z,65.81
2023-02-27T05:52:23.706Z,65.65
2023-02-27T05:55:09.704Z,65.32
2023-02-27T05:57:40.098Z,65.11
2023-02-27T06:00:10.268Z,64.41
2023-02-27T06:02:40.346Z,64.21
2023-02-27T06:05:07.580Z,63.99
2023-02-27T06:07:34.476Z,63.73
2023-02-27T06:10:03.720Z,63.54
2023-02-27T07:12:40.404Z,65.90
2023-02-27T07:15:09.034Z,65.86
2023-02-27T07:17:35.632Z,65.67
2023-02-27T07:20:06.575Z,65.77
2023-02-27T07:22:34.002Z,65.98
2023-02-27T07:25:00.624Z,65.97
2023-02-27T07:27:27.197Z,65.88
2023-02-27T07:29:53.789Z,65.93
2023-02-27T07:32:20.370Z,66.20
2023-02-27T07:34:47.289Z,66.28
2023-02-27T07:37:14.896Z,66.25
2023-02-27T07:39:42.250Z,66.40
2023-02-27T07:42:08.753Z,66.48
2023-02-27T07:44:36.043Z,66.48
2023-02-27T07:47:02.823Z,66.26
2023-02-27T07:49:29.462Z,65.95
2023-02-27T07:51:56.089Z,65.95
2023-02-27T07:54:23.584Z,66.09
2023-02-27T07:56:53.722Z,66.14
2023-02-27T07:59:22.518Z,66.12
2023-02-27T08:01:49.407Z,65.86
2023-02-27T08:04:21.106Z,65.81
2023-02-27T08:06:47.831Z,66.02
2023-02-27T08:09:14.586Z,65.96
2023-02-27T08:11:41.333Z,65.44
2023-02-27T08:14:07.875Z,65.53
2023-02-27T08:16:39.914Z,65.17
2023-02-27T08:19:06.531Z,65.30
2023-02-27T08:21:33.045Z,64.98
2023-02-27T08:23:59.876Z,65.21
2023-02-27T08:26:30.791Z,65.07
2023-02-27T08:28:59.200Z,65.21
2023-02-27T08:31:26.760Z,64.90
2023-02-27T08:34:01.062Z,64.92
2023-02-27T08:36:37.355Z,64.97
2023-02-27T08:39:04.816Z,65.14
2023-02-27T08:41:31.493Z,65.14
2023-02-27T08:43:57.999Z,64.73
2023-02-27T08:46:25.835Z,64.44
2023-02-27T08:48:52.762Z,63.87
2023-02-27T08:51:19.342Z,63.84
2023-02-27T08:53:46.113Z,63.76
2023-02-27T08:56:13.850Z,64.09
2023-02-27T08:58:40.853Z,63.64
2023-02-27T09:01:08.248Z,63.51
2023-02-27T09:03:36.733Z,63.53
2023-02-27T09:06:04.650Z,63.69
2023-02-27T09:08:31.781Z,64.10
2023-02-27T09:10:58.592Z,63.80
2023-02-27T09:13:26.175Z,63.58
2023-02-27T09:15:53.672Z,63.03
2023-02-27T09:18:24.603Z,62.71
2023-02-27T09:20:52.466Z,63.22
2023-02-27T09:23:19.084Z,63.14
2023-02-27T09:25:46.631Z,62.53
2023-02-27T09:28:13.672Z,62.59
2023-02-27T09:30:40.277Z,62.88
2023-02-27T09:33:07.099Z,62.20
2023-02-27T09:35:35.589Z,61.52
2023-02-27T09:38:02.463Z,61.02
2023-02-27T09:40:31.311Z,60.97
2023-02-27T09:43:02.935Z,60.76
2023-02-27T09:45:30.821Z,60.34
2023-02-27T09:48:00.672Z,60.02
2023-02-27T09:50:37.974Z,59.70
2023-02-27T09:53:06.130Z,59.07
2023-02-27T09:55:34.600Z,59.06
2023-02-27T09:58:11.623Z,58.76
2023-02-27T10:01:08.989Z,58.02
2023-02-27T10:03:42.800Z,57.62
2023-02-27T10:06:21.395Z,57.29
2023-02-27T10:08:52.989Z,56.63
2023-02-27T10:11:50.545Z,56.64
2023-02-27T10:14:28.918Z,57.28
2023-02-27T10:16:56.237Z,56.86
2023-02-27T10:19:26.592Z,57.19
2023-02-27T10:21:53.286Z,57.22
2023-02-27T10:24:28.813Z,56.74
2023-02-27T10:26:57.128Z,56.17
2023-02-27T10:29:31.455Z,56.06
2023-02-27T10:32:02.850Z,55.96
2023-02-27T10:34:30.535Z,55.29
2023-02-27T10:36:59.803Z,55.22
2023-02-27T10:39:27.369Z,55.19
2023-02-27T10:41:53.941Z,55.62
2023-02-27T10:44:20.671Z,55.60
2023-02-27T10:46:47.235Z,56.11
2023-02-27T10:49:19.281Z,56.25
2023-02-27T10:51:47.404Z,56.15
2023-02-27T10:54:23.531Z,56.23
2023-02-27T10:56:54.164Z,56.38
2023-02-27T10:59:28.118Z,56.21
2023-02-27T11:01:55.969Z,55.94
2023-02-27T11:04:24.600Z,56.10
2023-02-27T11:06:53.836Z,55.80
2023-02-27T11:09:23.229Z,55.68
2023-02-27T11:11:50.295Z,56.13
2023-02-27T11:14:26.483Z,55.93
2023-02-27T11:16:59.280Z,55.89
2023-02-27T11:19:37.667Z,56.24
2023-02-27T11:22:17.972Z,56.74
2023-02-27T11:24:48.717Z,56.44
2023-02-27T11:27:28.201Z,56.49
2023-02-27T11:30:24.235Z,56.17
2023-02-27T11:32:51.539Z,56.63
2023-02-27T11:35:38.368Z,56.67
2023-02-27T11:38:28.770Z,57.11
2023-02-27T11:41:03.340Z,57.13
2023-02-27T11:43:46.095Z,56.92
2023-02-27T11:46:36.307Z,57.26
2023-02-27T11:49:21.312Z,57.77
2023-02-27T11:52:03.269Z,57.34
2023-02-27T11:54:34.442Z,57.35
2023-02-27T11:57:27.498Z,57.80
2023-02-27T11:59:58.213Z,57.50
2023-02-27T12:02:39.189Z,57.42
2023-02-27T12:05:18.310Z,57.04
2023-02-27T12:07:54.345Z,56.78
2023-02-27T12:10:23.620Z,57.04
2023-02-27T12:13:16.204Z,57.23
2023-02-27T12:16:08.225Z,57.23
2023-02-27T12:18:44.866Z,57.58
2023-02-27T12:21:52.166Z,57.64
2023-02-27T12:24:28.418Z,57.52
2023-02-27T12:27:21.902Z,57.64
2023-02-27T12:29:57.844Z,57.44
2023-02-27T12:32:31.824Z,57.26
2023-02-27T12:35:23.854Z,57.49
2023-02-27T12:37:50.928Z,57.78
2023-02-27T12:40:18.738Z,57.51
2023-02-27T12:42:49.077Z,57.33
2023-02-27T12:45:30.911Z,57.26
2023-02-27T12:48:27.314Z,57.23
2023-02-27T12:51:32.100Z,57.73
2023-02-27T12:54:17.451Z,57.93
2023-02-27T12:57:11.022Z,57.83
2023-02-27T12:59:55.297Z,58.48
2023-02-27T13:02:46.440Z,58.69
2023-02-27T13:05:35.042Z,58.24
2023-02-27T13:08:23.413Z,58.36
2023-02-27T13:11:30.168Z,58.30
2023-02-27T13:14:00.786Z,58.08
2023-02-27T13:16:55.580Z,58.61
2023-02-27T13:19:46.011Z,58.56
2023-02-27T13:22:36.777Z,58.71
2023-02-27T13:25:07.871Z,58.51
2023-02-27T13:27:48.048Z,58.71
2023-02-27T13:30:29.182Z,58.94
2023-02-27T13:33:16.723Z,59.17
2023-02-27T13:36:10.739Z,58.46
2023-02-27T13:38:48.640Z,58.29
2023-02-27T13:41:24.431Z,58.46
2023-02-27T13:43:58.427Z,58.61
2023-02-27T13:46:29.212Z,58.45
2023-02-27T13:49:04.771Z,58.60
2023-02-27T13:51:34.895Z,58.67
2023-02-27T13:54:13.494Z,58.61
2023-02-27T13:56:58.985Z,58.49
2023-02-27T13:59:39.026Z,58.18
2023-02-27T14:02:14.426Z,58.19
2023-02-27T14:04:50.091Z,58.26
2023-02-27T14:07:20.693Z,58.56
2023-02-27T14:09:50.911Z,58.77
2023-02-27T14:12:44.491Z,58.86
2023-02-27T14:15:22.598Z,58.83
2023-02-27T14:18:05.861Z,59.03
2023-02-27T14:20:39.171Z,59.02
2023-02-27T14:23:15.038Z,59.10
2023-02-27T14:25:45.918Z,59.17
2023-02-27T14:28:35.364Z,58.75
2023-02-27T14:31:06.236Z,58.93
2023-02-27T14:33:41.550Z,59.25
2023-02-27T14:36:14.136Z,58.80
2023-02-27T14:38:40.786Z,58.83
2023-02-27T14:41:27.320Z,59.03
2023-02-27T14:43:57.869Z,58.87
2023-02-27T14:46:37.256Z,59.18
2023-02-27T14:49:17.685Z,59.00
2023-02-27T14:51:48.445Z,58.90
2023-02-27T14:54:19.857Z,59.22
2023-02-27T14:57:19.638Z,59.32
2023-02-27T14:59:48.700Z,59.20
2023-02-27T15:02:26.461Z,59.29
2023-02-27T15:04:55.213Z,59.43
2023-02-27T15:07:28.130Z,59.67
2023-02-27T15:09:58.330Z,59.95
2023-02-27T15:12:25.457Z,59.91
2023-02-27T15:14:56.954Z,60.09
2023-02-27T15:17:36.285Z,60.22
2023-02-27T15:20:05.811Z,60.44
2023-02-27T15:22:39.527Z,60.48
2023-02-27T15:25:07.187Z,60.64
2023-02-27T15:27:36.508Z,60.43
2023-02-27T15:30:05.762Z,60.24
2023-02-27T15:32:38.952Z,60.17
2023-02-27T15:35:17.089Z,60.62
2023-02-27T15:37:50.146Z,60.56
2023-02-27T15:40:23.440Z,60.36
2023-02-27T15:42:49.868Z,60.53
2023-02-27T15:45:19.101Z,60.55
2023-02-27T15:47:45.798Z,60.61
2023-02-27T15:50:15.483Z,60.79
2023-02-27T15:52:50.057Z,61.27
2023-02-27T15:55:23.489Z,61.47
2023-02-27T15:58:02.364Z,61.32
2023-02-27T16:00:31.893Z,61.13
2023-02-27T16:02:58.688Z,61.31
2023-02-27T16:05:29.921Z,61.19
2023-02-27T16:07:56.657Z,61.08
2023-02-27T16:10:27.566Z,61.33
2023-02-27T16:12:54.653Z,60.98
2023-02-27T16:15:35.632Z,61.18
2023-02-27T16:18:08.622Z,61.21
2023-02-27T16:20:41.356Z,61.11
2023-02-27T16:23:25.300Z,60.79
2023-02-27T16:26:05.201Z,61.36
2023-02-27T16:29:03.047Z,61.01
2023-02-27T16:31:35.416Z,60.91
2023-02-27T16:34:12.798Z,60.94
2023-02-27T16:36:40.854Z,61.07
2023-02-27T16:39:13.525Z,61.21
2023-02-27T16:41:40.598Z,60.98
2023-02-27T16:44:08.256Z,61.38
2023-02-27T16:46:35.569Z,61.62
2023-02-27T16:49:18.925Z,61.70
2023-02-27T16:51:46.242Z,61.59
2023-02-27T16:54:13.482Z,61.73
2023-02-27T16:56:41.307Z,61.94
2023-02-27T16:59:26.295Z,61.86
2023-02-27T17:01:53.132Z,62.02
2023-02-27T17:04:25.953Z,61.84
2023-02-27T17:06:53.769Z,61.87
2023-02-27T17:09:21.007Z,61.99
2023-02-27T17:11:48.908Z,62.00
2023-02-27T17:14:15.814Z,61.77
2023-02-27T17:16:43.086Z,62.21
2023-02-27T17:19:09.801Z,62.00
2023-02-27T17:21:36.941Z,61.98
2023-02-27T17:24:04.305Z,62.29
2023-02-27T17:26:31.691Z,62.57
2023-02-27T17:29:01.997Z,62.41
2023-02-27T17:31:28.691Z,62.29
2023-02-27T17:33:55.251Z,62.29
2023-02-27T17:36:26.874Z,61.98
2023-02-27T17:38:57.587Z,62.09
2023-02-27T17:41:24.310Z,62.28
2023-02-27T17:43:54.828Z,62.13
2023-02-27T17:46:22.527Z,62.32
2023-02-27T17:48:51.771Z,62.26
2023-02-27T17:51:18.570Z,62.04
2023-02-27T17:53:45.684Z,61.69
2023-02-27T17:56:14.883Z,61.78
2023-02-27T17:58:44.918Z,61.74
2023-02-27T18:01:14.738Z,61.84
2023-02-27T18:03:43.495Z,61.85
2023-02-27T18:06:11.558Z,61.91
2023-02-27T18:08:41.287Z,62.02
2023-02-27T18:11:12.492Z,61.83
2023-02-27T18:13:39.365Z,61.88
2023-02-27T18:16:07.162Z,61.54
2023-02-27T18:18:36.407Z,61.89
2023-02-27T18:21:14.500Z,62.01
2023-02-27T18:23:44.626Z,62.07
2023-02-27T18:26:28.920Z,62.17
2023-02-27T18:28:59.765Z,62.34
2023-02-27T18:43:32.041Z,60.43
2023-02-27T18:46:00.642Z,59.64
2023-02-27T18:48:34.916Z,59.20
2023-02-27T18:51:05.022Z,59.53
2023-02-27T18:53:36.341Z,59.79
2023-02-27T18:56:05.421Z,59.50
2023-02-27T18:58:37.829Z,59.50
2023-02-27T19:01:07.472Z,59.78
2023-02-27T19:03:35.932Z,59.81
2023-02-27T19:06:04.465Z,60.00
2023-02-27T19:08:32.457Z,59.99
2023-02-27T19:11:04.840Z,60.71
2023-02-27T19:13:33.076Z,60.81
2023-02-27T19:16:04.717Z,61.00
2023-02-27T19:18:33.988Z,61.23
2023-02-27T19:21:05.697Z,61.68
2023-02-27T19:23:39.757Z,61.42
2023-02-27T19:26:08.409Z,61.42
2023-02-27T19:28:36.515Z,61.59
2023-02-27T19:31:10.185Z,61.48
2023-02-27T19:33:40.062Z,61.17
2023-02-27T19:36:10.253Z,61.27
2023-02-27T19:38:39.407Z,61.50
2023-02-27T19:41:09.309Z,61.22
2023-02-27T19:43:38.604Z,61.22
2023-02-27T19:46:07.856Z,60.91
2023-02-27T19:48:36.152Z,60.94
2023-02-27T19:51:05.068Z,61.00
2023-02-27T19:53:35.634Z,60.85
2023-02-27T19:56:06.171Z,60.73
2023-02-27T19:58:35.561Z,60.31
2023-02-27T20:01:04.339Z,60.37
2023-02-27T20:03:35.187Z,60.45
2023-02-27T20:06:06.386Z,60.57
2023-02-27T20:08:37.317Z,60.77
2023-02-27T20:11:05.762Z,60.78
2023-02-27T20:13:33.635Z,61.05
2023-02-27T20:16:04.132Z,60.97
2023-02-27T20:18:32.895Z,60.79
2023-02-27T20:21:07.772Z,61.13
2023-02-27T20:23:38.832Z,61.01
2023-02-27T20:26:14.796Z,60.99
2023-02-27T20:28:44.502Z,60.87
2023-02-27T20:31:14.948Z,60.86
2023-02-27T20:33:44.725Z,60.77
2023-02-27T20:36:12.829Z,60.96
2023-02-27T20:38:40.781Z,60.96
2023-02-27T20:41:10.693Z,61.00
2023-02-27T20:43:39.128Z,60.88
2023-02-27T20:46:08.445Z,60.90
2023-02-27T20:48:36.517Z,61.08
2023-02-27T20:51:22.042Z,60.77
2023-02-27T20:53:52.076Z,60.60
2023-02-27T20:56:24.453Z,60.76
2023-02-27T20:58:52.689Z,60.64
2023-02-27T21:01:21.133Z,60.80
2023-02-27T21:03:52.187Z,60.60
2023-02-27T21:06:20.676Z,60.59
2023-02-27T21:08:53.938Z,60.57
2023-02-27T21:11:24.830Z,60.68
2023-02-27T21:13:56.901Z,60.60
2023-02-27T21:16:25.877Z,60.39
2023-02-27T21:18:56.413Z,60.31
2023-02-27T21:21:27.018Z,60.30
2023-02-27T21:23:55.339Z,60.16
2023-02-27T21:26:25.072Z,60.20
2023-02-27T21:28:58.099Z,60.12
2023-02-27T21:31:30.370Z,59.97
2023-02-27T21:33:59.966Z,59.90
2023-02-27T21:36:30.283Z,60.02
2023-02-27T21:39:19.935Z,60.11
2023-02-27T21:41:50.113Z,59.81
2023-02-27T21:44:19.626Z,59.69
2023-02-27T21:46:50.110Z,59.51
2023-02-27T21:49:19.978Z,59.82
2023-02-27T21:51:47.892Z,59.84
2023-02-27T21:54:16.218Z,59.89
2023-02-27T21:56:45.687Z,60.11
2023-02-27T21:59:16.219Z,60.23
2023-02-27T22:01:47.405Z,60.37
2023-02-27T22:04:16.640Z,60.28
2023-02-27T22:06:46.332Z,60.44
2023-02-27T22:09:14.660Z,60.56
2023-02-27T22:11:42.649Z,60.36
2023-02-27T22:14:10.958Z,60.09
2023-02-27T22:16:39.077Z,60.26
2023-02-27T22:19:08.165Z,60.26
2023-02-27T22:21:36.748Z,60.44
2023-02-27T22:24:05.055Z,60.69
2023-02-27T22:26:35.310Z,61.06
2023-02-27T22:29:04.129Z,61.08
2023-02-27T22:31:34.508Z,61.16
2023-02-27T22:34:10.771Z,61.06
2023-02-27T22:36:41.286Z,61.00
2023-02-27T22:39:15.032Z,60.59
2023-02-27T22:41:43.286Z,60.62
2023-02-27T22:44:12.416Z,60.73
2023-02-27T22:46:42.876Z,60.67
2023-02-27T22:49:16.043Z,60.83
2023-02-27T22:51:44.332Z,60.75
2023-02-27T22:54:13.368Z,60.83
2023-02-27T22:56:41.925Z,60.89
2023-02-27T22:59:16.732Z,60.96
2023-02-27T23:01:44.744Z,60.71
2023-02-27T23:04:12.873Z,60.62
2023-02-27T23:06:42.972Z,60.40
2023-02-27T23:09:13.541Z,60.09
2023-02-27T23:11:42.087Z,60.37
2023-02-27T23:14:13.511Z,60.42
2023-02-27T23:16:45.819Z,60.15
2023-02-27T23:19:18.322Z,60.27
2023-02-27T23:21:46.221Z,60.49
2023-02-27T23:24:15.947Z,60.33
2023-02-27T23:26:46.161Z,60.18
2023-02-27T23:29:19.603Z,60.25
2023-02-27T23:31:48.093Z,60.49
2023-02-27T23:34:19.866Z,60.17
2023-02-27T23:36:47.823Z,60.23
2023-02-27T23:39:16.315Z,59.99
2023-02-27T23:41:44.613Z,59.77
2023-02-27T23:44:12.552Z,59.42
2023-02-27T23:46:42.784Z,59.61
2023-02-27T23:49:10.988Z,59.76
2023-02-27T23:51:39.169Z,60.01
2023-02-27T23:54:07.400Z,60.13
2023-02-27T23:56:35.322Z,60.26
2023-02-27T23:59:05.723Z,60.23
